Time;durP1;ratioP1;P1;durP2;ratioP2;P2;SDS_P1;SDS_P2;PMS_P1;PMS_P2;Temp;Humidity;BMP_temperature;BMP_pressure;BME280_temperature;BME280_humidity;BME280_pressure;Samples;Min_cycle;Max_cycle;Signal;HPM_P1;HPM_P2
2022/01/05 00:00:42;;;;;;;2.90;1.08;;;7.70;99.90;;;;;;5043710;28;20205;-89
2022/01/05 00:03:09;;;;;;;2.70;1.08;;;7.70;99.90;;;;;;5043861;28;20296;-90
2022/01/05 00:05:36;;;;;;;2.60;1.00;;;7.70;99.90;;;;;;5041989;28;20214;-90
2022/01/05 00:08:03;;;;;;;2.40;0.93;;;7.60;99.90;;;;;;5082949;22;20626;-87
2022/01/05 00:10:30;;;;;;;2.65;0.75;;;7.80;99.90;;;;;;5036846;28;20215;-87
2022/01/05 00:12:59;;;;;;;2.17;0.68;;;7.50;99.90;;;;;;5034013;28;20301;-88
2022/01/05 00:15:27;;;;;;;2.92;0.95;;;7.70;99.90;;;;;;5019790;28;20723;-88
2022/01/05 00:17:54;;;;;;;2.22;0.60;;;7.70;99.90;;;;;;5022706;28;20229;-88
2022/01/05 00:20:21;;;;;;;2.70;0.88;;;7.70;99.90;;;;;;5020990;28;20587;-88
2022/01/05 00:22:48;;;;;;;2.55;0.82;;;7.60;99.90;;;;;;5020242;28;20206;-87
2022/01/05 00:25:14;;;;;;;2.38;0.65;;;7.80;99.90;;;;;;5019618;28;20221;-88
2022/01/05 00:27:41;;;;;;;2.33;0.73;;;7.60;99.90;;;;;;5019064;28;20242;-89
2022/01/05 00:30:11;;;;;;;2.33;0.70;;;7.50;99.90;;;;;;5024215;28;20210;-87
2022/01/05 00:32:38;;;;;;;2.47;0.75;;;7.60;99.90;;;;;;5021681;28;20211;-87
2022/01/05 00:35:06;;;;;;;4.55;0.95;;;7.50;99.90;;;;;;5019600;28;20243;-87
2022/01/05 00:37:33;;;;;;;2.75;0.88;;;7.60;99.90;;;;;;5022147;28;20254;-88
2022/01/05 00:40:00;;;;;;;2.42;0.95;;;7.10;99.90;;;;;;5018006;28;20238;-88
2022/01/05 00:42:27;;;;;;;2.20;0.52;;;7.40;99.90;;;;;;5020502;28;20255;-88
2022/01/05 00:44:53;;;;;;;2.50;0.70;;;7.50;99.90;;;;;;5018027;28;20301;-88
2022/01/05 00:47:22;;;;;;;2.50;0.70;;;7.10;99.90;;;;;;5018167;28;20242;-88
2022/01/05 00:49:48;;;;;;;2.40;0.70;;;7.60;99.90;;;;;;5019953;28;20301;-88
2022/01/05 00:52:15;;;;;;;2.20;0.63;;;7.40;99.90;;;;;;5017869;28;20233;-88
2022/01/05 00:54:42;;;;;;;2.22;0.60;;;7.20;99.90;;;;;;5017238;28;20725;-88
2022/01/05 00:57:09;;;;;;;2.35;0.70;;;7.60;99.90;;;;;;5024149;28;20282;-86
2022/01/05 00:59:36;;;;;;;2.40;0.65;;;7.60;99.90;;;;;;5035585;28;20587;-87
2022/01/05 01:02:03;;;;;;;3.65;0.70;;;7.70;99.90;;;;;;5026170;28;20221;-87
2022/01/05 01:04:32;;;;;;;2.30;0.73;;;7.60;99.90;;;;;;5034488;28;20207;-87
2022/01/05 01:06:58;;;;;;;3.15;0.70;;;7.60;99.90;;;;;;5029783;28;20250;-87
2022/01/05 01:09:25;;;;;;;3.40;0.90;;;7.60;99.90;;;;;;5017481;28;20274;-88
2022/01/05 01:11:52;;;;;;;2.17;0.57;;;7.30;99.90;;;;;;5019150;28;20318;-88
2022/01/05 01:14:19;;;;;;;2.70;0.95;;;7.60;99.90;;;;;;5028145;28;20249;-89
2022/01/05 01:16:46;;;;;;;2.95;0.60;;;7.20;99.90;;;;;;5017613;28;20281;-89
2022/01/05 01:19:13;;;;;;;2.55;0.40;;;7.60;99.90;;;;;;5016416;28;20247;-88
2022/01/05 01:21:41;;;;;;;2.22;0.52;;;7.60;99.90;;;;;;5017367;28;20226;-89
2022/01/05 01:24:08;;;;;;;2.10;0.50;;;7.60;99.90;;;;;;5016235;28;20214;-88
2022/01/05 01:26:35;;;;;;;2.67;0.80;;;7.40;99.90;;;;;;5016208;28;20235;-87
2022/01/05 01:29:02;;;;;;;2.10;0.50;;;7.20;99.90;;;;;;5021769;28;20244;-88
2022/01/05 01:31:29;;;;;;;2.10;0.50;;;7.20;99.90;;;;;;5035657;28;20222;-88
2022/01/05 01:33:56;;;;;;;2.40;0.60;;;7.40;99.90;;;;;;5023681;28;20218;-88
2022/01/05 01:36:23;;;;;;;2.10;0.50;;;7.70;99.90;;;;;;5024243;28;20207;-88
2022/01/05 01:38:51;;;;;;;2.85;0.55;;;7.80;99.90;;;;;;5016487;28;20210;-88
2022/01/05 01:41:18;;;;;;;2.20;0.60;;;7.40;99.90;;;;;;5015441;28;20290;-89
2022/01/05 01:43:45;;;;;;;2.10;0.50;;;7.70;99.90;;;;;;5014144;28;20207;-89
2022/01/05 01:46:11;;;;;;;2.42;0.50;;;7.70;99.90;;;;;;5015369;28;20243;-88
2022/01/05 01:48:40;;;;;;;2.10;0.50;;;7.40;99.90;;;;;;5014812;28;20729;-89
2022/01/05 01:51:06;;;;;;;2.20;0.60;;;7.70;99.90;;;;;;5015288;28;20676;-88
2022/01/05 01:53:33;;;;;;;2.30;0.60;;;7.70;99.90;;;;;;5014747;28;20221;-88
2022/01/05 01:56:04;;;;;;;2.40;0.63;;;7.70;99.90;;;;;;5014780;28;20302;-88
2022/01/05 01:58:34;;;;;;;2.30;0.52;;;7.70;99.90;;;;;;5014703;28;20322;-88
2022/01/05 02:01:01;;;;;;;2.20;0.52;;;7.80;99.90;;;;;;5015707;28;20238;-89
2022/01/05 02:03:28;;;;;;;2.00;0.50;;;7.80;99.90;;;;;;5021448;28;20642;-89
2022/01/05 02:05:55;;;;;;;2.20;0.50;;;7.80;99.90;;;;;;5015474;28;20269;-88
2022/01/05 02:08:22;;;;;;;2.53;0.70;;;7.80;99.90;;;;;;5014607;28;20587;-88
2022/01/05 02:10:49;;;;;;;2.40;0.60;;;7.50;99.90;;;;;;5015201;28;20305;-89
2022/01/05 02:13:17;;;;;;;2.20;0.60;;;7.80;99.90;;;;;;5035073;28;20241;-88
2022/01/05 02:15:45;;;;;;;2.17;0.60;;;7.80;99.90;;;;;;5026625;28;20301;-88
2022/01/05 02:18:57;;;;;;;3.00;0.77;;;7.80;99.90;;;;;;5015268;28;20258;-89
2022/01/05 02:21:11;;;;;;;2.53;0.60;;;7.50;99.90;;;;;;5020608;28;20213;-88
2022/01/05 02:23:39;;;;;;;2.00;0.43;;;7.90;99.90;;;;;;5015263;28;20202;-88
2022/01/05 02:26:08;;;;;;;2.28;0.60;;;7.80;99.90;;;;;;5015063;28;20237;-89
2022/01/05 02:28:35;;;;;;;2.20;0.60;;;7.50;99.90;;;;;;5015148;28;20235;-87
2022/01/05 02:31:03;;;;;;;2.20;0.60;;;7.90;99.90;;;;;;5019256;28;20591;-87
2022/01/05 02:33:32;;;;;;;2.55;0.60;;;8.00;99.90;;;;;;5030254;28;20199;-87
2022/01/05 02:35:59;;;;;;;2.60;0.70;;;7.90;99.90;;;;;;5017488;28;20217;-89
2022/01/05 02:38:27;;;;;;;2.30;0.63;;;7.80;99.90;;;;;;5014914;28;20696;-88
2022/01/05 02:40:54;;;;;;;2.85;0.80;;;7.60;99.90;;;;;;5016077;28;20305;-89
2022/01/05 02:43:21;;;;;;;2.40;0.70;;;7.80;99.90;;;;;;5033069;28;20245;-88
2022/01/05 02:45:48;;;;;;;2.78;0.90;;;7.80;99.90;;;;;;5029790;28;20211;-87
2022/01/05 02:48:15;;;;;;;2.97;1.00;;;7.40;99.90;;;;;;5015810;28;20641;-86
2022/01/05 02:50:42;;;;;;;2.50;0.50;;;7.40;99.90;;;;;;5014407;28;20242;-88
2022/01/05 02:53:09;;;;;;;2.17;0.57;;;7.80;99.90;;;;;;5015650;28;20215;-88
2022/01/05 02:55:37;;;;;;;2.30;0.70;;;7.70;99.90;;;;;;5016311;28;20317;-88
2022/01/05 02:58:04;;;;;;;2.30;0.70;;;7.80;99.90;;;;;;5031413;28;20241;-88
2022/01/05 03:00:31;;;;;;;2.20;0.57;;;7.80;99.90;;;;;;5014576;28;20310;-88
2022/01/05 03:02:58;;;;;;;2.15;0.60;;;7.80;99.90;;;;;;5016690;28;20290;-88
2022/01/05 03:05:27;;;;;;;2.35;0.70;;;7.80;99.90;;;;;;4994067;28;20561;-88
2022/01/05 03:07:54;;;;;;;3.28;0.60;;;7.70;99.90;;;;;;4994353;28;20623;-87
2022/01/05 03:10:21;;;;;;;2.38;0.60;;;7.70;99.90;;;;;;4994848;28;20211;-87
2022/01/05 03:12:49;;;;;;;3.15;0.80;;;7.70;99.90;;;;;;4994487;28;20318;-88
2022/01/05 03:15:16;;;;;;;3.38;0.90;;;7.70;99.90;;;;;;4994298;28;20611;-88
2022/01/05 03:17:44;;;;;;;2.20;0.70;;;7.70;99.90;;;;;;4994048;28;20226;-88
2022/01/05 03:20:12;;;;;;;2.20;0.50;;;7.60;99.90;;;;;;4994403;28;20204;-88
2022/01/05 03:22:39;;;;;;;2.45;0.90;;;7.90;99.90;;;;;;4995124;28;20218;-88
2022/01/05 03:25:09;;;;;;;2.20;0.52;;;7.60;99.90;;;;;;4995365;28;20207;-88
2022/01/05 03:27:36;;;;;;;2.85;0.70;;;7.70;99.90;;;;;;4997369;28;20282;-88
2022/01/05 03:30:05;;;;;;;2.10;0.65;;;7.70;99.90;;;;;;5006674;28;20187;-88
2022/01/05 03:32:43;;;;;;;4.60;0.60;;;7.70;99.90;;;;;;4996092;28;20282;-88
2022/01/05 03:35:10;;;;;;;2.10;0.50;;;7.70;99.90;;;;;;4994710;28;20290;-88
2022/01/05 03:37:37;;;;;;;2.10;0.60;;;7.70;99.90;;;;;;4994418;28;20228;-88
2022/01/05 03:40:05;;;;;;;2.50;0.70;;;7.20;99.90;;;;;;4999723;28;20245;-87
2022/01/05 03:42:32;;;;;;;2.95;0.60;;;7.60;99.90;;;;;;4994904;28;20234;-88
2022/01/05 03:44:59;;;;;;;2.58;0.65;;;7.70;99.90;;;;;;4994315;28;20215;-88
2022/01/05 03:47:27;;;;;;;2.70;0.70;;;7.40;99.90;;;;;;4994382;28;20725;-88
2022/01/05 03:49:54;;;;;;;2.20;0.55;;;7.40;99.90;;;;;;4993723;28;20305;-88
2022/01/05 03:52:21;;;;;;;2.00;0.50;;;7.70;99.90;;;;;;4994324;28;20217;-88
2022/01/05 03:54:48;;;;;;;2.00;0.50;;;7.70;99.90;;;;;;4993999;28;20213;-88
2022/01/05 03:57:15;;;;;;;2.58;0.60;;;7.70;99.90;;;;;;4993554;28;20326;-88
2022/01/05 03:59:42;;;;;;;2.15;0.57;;;7.40;99.90;;;;;;4994242;28;20223;-88
2022/01/05 04:02:09;;;;;;;2.10;0.57;;;7.70;99.90;;;;;;4995238;28;20215;-88
2022/01/05 04:04:37;;;;;;;2.40;0.60;;;7.70;99.90;;;;;;4999374;28;20206;-86
2022/01/05 04:07:04;;;;;;;2.35;0.70;;;7.30;99.90;;;;;;5016837;28;20291;-87
2022/01/05 04:09:31;;;;;;;3.08;0.65;;;7.70;99.90;;;;;;5004708;28;20231;-88
2022/01/05 04:11:58;;;;;;;2.22;0.60;;;7.70;99.90;;;;;;5004042;28;20243;-88
2022/01/05 04:14:25;;;;;;;2.20;0.57;;;7.70;99.90;;;;;;4999334;28;20664;-88
2022/01/05 04:16:51;;;;;;;2.08;0.50;;;7.70;99.90;;;;;;5001847;28;20235;-88
2022/01/05 04:19:18;;;;;;;2.47;0.52;;;7.70;99.90;;;;;;5012979;28;20211;-88
2022/01/05 04:21:46;;;;;;;2.10;0.50;;;7.20;99.90;;;;;;5019480;28;20194;-86
2022/01/05 04:24:13;;;;;;;1.98;0.40;;;7.70;99.90;;;;;;5019454;28;20275;-87
2022/01/05 04:26:40;;;;;;;2.13;0.52;;;7.30;99.90;;;;;;5019665;28;20198;-87
2022/01/05 04:29:07;;;;;;;2.15;0.60;;;7.70;99.90;;;;;;5019696;28;20218;-87
2022/01/05 04:31:34;;;;;;;2.10;0.50;;;7.30;99.90;;;;;;5012043;28;20711;-88
2022/01/05 04:34:01;;;;;;;2.10;0.50;;;7.90;99.90;;;;;;4997152;28;20651;-88
2022/01/05 04:36:28;;;;;;;2.00;0.50;;;7.70;99.90;;;;;;4996878;28;20215;-87
2022/01/05 04:38:56;;;;;;;3.15;0.70;;;7.70;99.90;;;;;;4996806;28;20586;-88
2022/01/05 04:41:23;;;;;;;2.10;0.50;;;7.70;99.90;;;;;;5000177;28;20245;-88
2022/01/05 04:43:50;;;;;;;2.10;0.60;;;7.60;99.90;;;;;;4999418;28;20218;-88
2022/01/05 04:46:17;;;;;;;3.15;0.47;;;7.30;99.90;;;;;;4996845;28;20306;-88
2022/01/05 04:48:44;;;;;;;2.00;0.50;;;7.60;99.90;;;;;;5011304;28;20231;-87
2022/01/05 04:51:11;;;;;;;2.15;0.50;;;7.50;99.90;;;;;;5014456;28;20616;-88
2022/01/05 04:53:38;;;;;;;2.30;0.60;;;7.20;99.90;;;;;;5001766;28;20207;-88
2022/01/05 04:56:06;;;;;;;2.40;0.50;;;7.50;99.90;;;;;;5009304;28;20242;-88
2022/01/05 04:58:33;;;;;;;2.92;0.85;;;7.50;99.90;;;;;;4998765;28;20244;-89
2022/01/05 05:01:00;;;;;;;2.65;0.60;;;7.80;99.90;;;;;;4996170;28;20286;-89
2022/01/05 05:03:27;;;;;;;2.03;0.55;;;7.40;99.90;;;;;;4996612;28;20214;-89
2022/01/05 05:05:53;;;;;;;2.30;0.50;;;7.60;99.90;;;;;;4995844;28;20581;-89
2022/01/05 05:08:20;;;;;;;2.50;0.77;;;7.20;99.90;;;;;;4996102;28;20413;-89
2022/01/05 05:10:47;;;;;;;2.40;0.60;;;7.60;99.90;;;;;;4995769;28;20296;-88
2022/01/05 05:13:15;;;;;;;2.40;0.68;;;7.50;99.90;;;;;;4995691;28;20259;-88
2022/01/05 05:15:42;;;;;;;2.40;0.60;;;7.70;99.90;;;;;;4996182;28;20578;-88
2022/01/05 05:18:09;;;;;;;3.10;1.10;;;7.60;99.90;;;;;;4995707;28;20227;-88
2022/01/05 05:20:36;;;;;;;2.75;0.50;;;7.20;99.90;;;;;;4995876;28;20559;-88
2022/01/05 05:23:04;;;;;;;2.30;0.60;;;7.60;99.90;;;;;;4995836;28;20258;-88
2022/01/05 05:25:31;;;;;;;2.05;0.50;;;7.70;99.90;;;;;;4995662;28;20242;-88
2022/01/05 05:27:58;;;;;;;2.10;0.60;;;7.60;99.90;;;;;;4995093;28;20261;-88
2022/01/05 05:30:26;;;;;;;3.05;0.70;;;6.80;99.90;;;;;;4995905;28;20226;-88
2022/01/05 05:32:54;;;;;;;2.30;0.68;;;6.00;99.90;;;;;;4995332;28;20215;-88
2022/01/05 05:35:21;;;;;;;2.80;0.82;;;6.10;99.90;;;;;;4995484;28;20626;-88
2022/01/05 05:37:48;;;;;;;2.83;0.90;;;5.80;99.90;;;;;;4996321;28;20574;-88
2022/01/05 05:40:15;;;;;;;2.83;0.80;;;5.70;99.90;;;;;;5007522;28;20200;-86
2022/01/05 05:42:42;;;;;;;2.38;0.80;;;5.40;99.90;;;;;;5016474;28;20269;-87
2022/01/05 05:45:09;;;;;;;2.95;0.95;;;5.30;99.90;;;;;;5005498;28;20210;-88
2022/01/05 05:47:38;;;;;;;5.00;1.10;;;5.20;99.90;;;;;;4997240;28;20286;-88
2022/01/05 05:50:06;;;;;;;3.50;1.13;;;4.70;99.90;;;;;;4996189;28;20321;-87
2022/01/05 05:52:33;;;;;;;2.40;0.82;;;5.40;99.90;;;;;;4997048;28;20296;-88
2022/01/05 05:55:00;;;;;;;2.70;0.90;;;5.30;99.90;;;;;;5015593;28;20192;-86
2022/01/05 05:57:27;;;;;;;2.15;0.57;;;5.40;99.90;;;;;;5008589;28;20231;-87
2022/01/05 05:59:54;;;;;;;2.50;0.80;;;5.30;99.90;;;;;;5005454;28;20282;-89
2022/01/05 06:02:21;;;;;;;2.55;1.00;;;4.90;99.90;;;;;;5003249;28;20236;-89
2022/01/05 06:04:49;;;;;;;2.97;1.00;;;5.10;99.90;;;;;;4997249;28;20288;-88
2022/01/05 06:07:16;;;;;;;2.55;1.10;;;4.90;99.90;;;;;;5026117;23;20325;-90
2022/01/05 06:09:43;;;;;;;2.30;0.80;;;5.10;99.90;;;;;;5017710;28;20812;-89
2022/01/05 06:12:10;;;;;;;2.35;0.80;;;4.80;99.90;;;;;;5018166;28;20201;-89
2022/01/05 06:14:37;;;;;;;4.25;1.08;;;5.20;99.90;;;;;;5018015;28;20286;-88
2022/01/05 06:17:04;;;;;;;5.53;2.65;;;5.40;99.90;;;;;;5016795;28;20227;-88
2022/01/05 06:19:32;;;;;;;3.42;1.38;;;5.10;99.90;;;;;;5019287;28;20210;-90
2022/01/05 06:22:00;;;;;;;2.80;1.00;;;5.20;99.90;;;;;;5017146;28;20228;-90
2022/01/05 06:24:27;;;;;;;2.30;0.70;;;5.10;99.90;;;;;;5017093;28;20239;-90
2022/01/05 06:26:54;;;;;;;2.95;1.10;;;5.40;99.90;;;;;;5017973;28;20281;-88
2022/01/05 06:29:21;;;;;;;3.50;1.40;;;5.20;99.90;;;;;;5016275;28;20222;-90
2022/01/05 06:31:49;;;;;;;3.38;0.88;;;5.30;99.90;;;;;;5016370;28;20255;-90
2022/01/05 06:34:15;;;;;;;2.50;0.70;;;5.20;99.90;;;;;;5017205;28;20749;-89
2022/01/05 06:36:42;;;;;;;2.50;0.80;;;5.60;99.90;;;;;;5018942;28;20291;-91
2022/01/05 06:39:11;;;;;;;2.60;0.80;;;5.80;99.90;;;;;;5021354;28;20242;-89
2022/01/05 06:41:38;;;;;;;2.75;1.10;;;6.00;99.90;;;;;;5020073;28;20219;-89
2022/01/05 06:44:08;;;;;;;3.40;0.85;;;5.80;99.90;;;;;;5018825;28;20260;-89
2022/01/05 06:46:35;;;;;;;3.83;1.10;;;5.80;99.90;;;;;;5020799;28;20249;-88
2022/01/05 06:49:02;;;;;;;3.65;1.05;;;5.90;99.90;;;;;;5019253;28;20262;-89
2022/01/05 06:51:28;;;;;;;3.38;1.08;;;5.90;99.90;;;;;;5038222;28;20193;-87
2022/01/05 06:53:55;;;;;;;3.28;0.90;;;5.50;99.90;;;;;;5037805;28;20236;-90
2022/01/05 06:56:23;;;;;;;6.53;1.30;;;5.80;99.90;;;;;;5035348;28;20595;-90
2022/01/05 06:58:50;;;;;;;3.15;1.10;;;5.80;99.90;;;;;;5035724;28;20240;-90
2022/01/05 07:01:17;;;;;;;3.75;1.20;;;5.80;99.90;;;;;;5028968;28;20273;-90
2022/01/05 07:03:44;;;;;;;2.85;0.90;;;5.50;99.90;;;;;;5018338;28;20199;-89
2022/01/05 07:06:11;;;;;;;2.90;1.00;;;5.30;99.90;;;;;;5019146;28;20229;-88
2022/01/05 07:08:39;;;;;;;2.80;0.90;;;5.50;99.90;;;;;;5021616;28;20284;-90
2022/01/05 07:11:06;;;;;;;3.10;1.58;;;5.60;99.90;;;;;;5020968;28;20214;-89
2022/01/05 07:13:35;;;;;;;3.05;1.20;;;5.30;99.90;;;;;;5016845;28;20223;-89
2022/01/05 07:16:02;;;;;;;3.47;1.25;;;5.20;99.90;;;;;;5016865;28;20725;-90
2022/01/05 07:18:29;;;;;;;11.75;3.13;;;5.80;99.90;;;;;;5017134;28;20249;-90
2022/01/05 07:20:56;;;;;;;3.33;1.15;;;5.60;99.90;;;;;;5016943;28;20236;-89
2022/01/05 07:23:23;;;;;;;3.55;1.30;;;5.70;99.90;;;;;;5017288;28;20268;-89
2022/01/05 07:25:50;;;;;;;2.88;1.10;;;5.80;99.90;;;;;;5018956;28;20235;-89
2022/01/05 07:28:17;;;;;;;4.00;1.20;;;5.70;99.90;;;;;;5026967;28;20210;-88
2022/01/05 07:30:45;;;;;;;2.35;0.90;;;5.90;99.90;;;;;;5037872;28;20200;-90
2022/01/05 07:33:12;;;;;;;2.60;1.00;;;5.50;99.90;;;;;;5038031;28;20194;-89
2022/01/05 07:35:39;;;;;;;4.80;1.42;;;5.80;99.90;;;;;;5027884;28;20210;-88
2022/01/05 07:38:06;;;;;;;6.65;1.50;;;5.70;99.90;;;;;;5037240;28;20244;-89
2022/01/05 07:40:33;;;;;;;3.30;1.20;;;5.20;99.90;;;;;;5037334;28;20630;-88
2022/01/05 07:43:01;;;;;;;5.03;2.33;;;5.30;99.90;;;;;;5030139;28;20209;-89
2022/01/05 07:45:28;;;;;;;2.88;1.50;;;5.70;99.90;;;;;;5023318;28;20301;-89
2022/01/05 07:47:57;;;;;;;4.20;1.30;;;5.70;99.90;;;;;;5031638;28;20235;-89
2022/01/05 07:50:24;;;;;;;3.65;1.33;;;5.30;99.90;;;;;;5030713;28;20264;-89
2022/01/05 07:52:51;;;;;;;9.52;1.90;;;5.70;99.90;;;;;;5031334;28;20251;-89
2022/01/05 07:55:17;;;;;;;4.10;1.45;;;5.40;99.90;;;;;;5031066;28;20213;-89
2022/01/05 07:57:44;;;;;;;4.25;1.50;;;5.30;99.90;;;;;;5031199;28;20233;-88
2022/01/05 08:00:13;;;;;;;3.88;1.65;;;5.70;99.90;;;;;;5031085;28;20214;-89
2022/01/05 08:02:40;;;;;;;4.50;1.38;;;5.60;99.90;;;;;;5027527;28;20533;-89
2022/01/05 08:05:09;;;;;;;7.35;1.90;;;5.60;99.90;;;;;;5023174;28;20240;-90
2022/01/05 08:07:39;;;;;;;6.10;1.70;;;5.50;99.90;;;;;;5022650;28;20316;-89
2022/01/05 08:10:07;;;;;;;4.97;1.58;;;5.50;99.90;;;;;;5023821;28;20258;-90
2022/01/05 08:12:34;;;;;;;4.72;1.83;;;5.30;99.90;;;;;;5022368;28;20213;-90
2022/01/05 08:15:03;;;;;;;5.20;2.25;;;5.20;99.90;;;;;;5023253;28;20208;-90
2022/01/05 08:17:30;;;;;;;5.47;2.10;;;5.10;99.90;;;;;;5023964;28;20276;-90
2022/01/05 08:19:57;;;;;;;6.43;2.45;;;5.10;99.90;;;;;;5027609;28;20213;-90
2022/01/05 08:22:25;;;;;;;9.57;2.60;;;5.20;99.90;;;;;;5032251;28;20228;-90
2022/01/05 08:24:53;;;;;;;5.97;2.50;;;4.90;99.90;;;;;;5021461;28;20213;-90
2022/01/05 08:27:20;;;;;;;7.28;2.47;;;5.10;99.90;;;;;;5022399;28;20595;-90
2022/01/05 08:29:46;;;;;;;5.15;2.50;;;4.80;99.90;;;;;;5022457;28;20296;-90
2022/01/05 08:32:14;;;;;;;4.05;1.90;;;5.20;99.90;;;;;;5021380;28;20244;-89
2022/01/05 08:34:41;;;;;;;5.55;2.85;;;5.20;99.90;;;;;;5020401;28;20207;-90
2022/01/05 08:37:10;;;;;;;4.80;2.58;;;4.80;99.90;;;;;;5020479;28;20259;-91
2022/01/05 08:39:38;;;;;;;4.20;2.00;;;5.20;99.90;;;;;;5021014;28;20575;-91
2022/01/05 08:42:05;;;;;;;7.78;2.08;;;5.20;99.90;;;;;;5021430;28;20219;-91
2022/01/05 08:44:32;;;;;;;5.70;2.00;;;5.20;99.90;;;;;;5021359;28;20323;-90
2022/01/05 08:46:59;;;;;;;5.60;2.53;;;5.10;99.90;;;;;;5019710;28;20269;-90
2022/01/05 08:49:26;;;;;;;5.80;2.22;;;4.90;99.90;;;;;;5021879;28;20378;-90
2022/01/05 08:51:54;;;;;;;5.15;2.50;;;5.00;99.90;;;;;;5030747;28;20289;-90
2022/01/05 08:54:21;;;;;;;4.90;2.08;;;5.00;99.90;;;;;;5031865;28;20235;-89
2022/01/05 08:56:50;;;;;;;6.03;2.03;;;5.00;99.90;;;;;;5032516;28;20239;-89
2022/01/05 08:59:16;;;;;;;5.35;2.35;;;4.80;99.90;;;;;;5037447;28;20204;-89
2022/01/05 09:01:44;;;;;;;7.07;1.98;;;4.50;99.90;;;;;;5036833;28;20243;-88
2022/01/05 09:04:10;;;;;;;8.15;2.10;;;4.60;99.90;;;;;;5032706;28;20260;-89
2022/01/05 09:06:37;;;;;;;5.80;2.15;;;4.60;99.90;;;;;;5034173;28;20240;-89
2022/01/05 09:09:05;;;;;;;5.28;2.28;;;4.30;99.90;;;;;;5026495;28;20332;-90
2022/01/05 09:11:32;;;;;;;5.50;2.50;;;4.30;99.90;;;;;;5022810;28;20234;-90
2022/01/05 09:14:00;;;;;;;8.38;2.20;;;4.60;99.90;;;;;;5021525;28;20208;-89
2022/01/05 09:16:27;;;;;;;7.70;2.30;;;4.60;99.90;;;;;;5023184;28;20223;-89
2022/01/05 09:18:54;;;;;;;6.22;1.80;;;4.50;99.90;;;;;;5026399;28;20318;-89
2022/01/05 09:21:21;;;;;;;6.18;2.17;;;4.90;99.90;;;;;;5026061;28;20206;-88
2022/01/05 09:23:50;;;;;;;5.40;2.50;;;5.00;99.90;;;;;;5024857;28;20233;-89
2022/01/05 09:26:17;;;;;;;4.38;1.65;;;4.90;99.90;;;;;;5024707;28;20206;-89
2022/01/05 09:28:44;;;;;;;9.02;1.65;;;4.80;99.90;;;;;;5024193;28;20225;-89
2022/01/05 09:31:13;;;;;;;4.22;1.83;;;4.70;99.90;;;;;;5022620;28;20211;-88
2022/01/05 09:33:40;;;;;;;9.10;1.90;;;4.90;99.90;;;;;;5021810;28;20232;-88
2022/01/05 09:36:13;;;;;;;4.32;1.50;;;4.80;99.90;;;;;;5020867;28;20247;-90
2022/01/05 09:44:09;;;;;;;4.72;1.83;;;4.90;99.90;;;;;;5020611;28;20224;-89
2022/01/05 09:46:47;;;;;;;6.03;2.00;;;4.90;99.90;;;;;;5028991;28;20296;-89
2022/01/05 09:49:19;;;;;;;4.78;2.05;;;5.30;99.90;;;;;;5029578;28;20209;-89
2022/01/05 09:51:51;;;;;;;10.02;2.17;;;5.40;99.90;;;;;;5038486;28;20177;-88
2022/01/05 09:54:19;;;;;;;6.82;1.67;;;5.10;99.90;;;;;;5037023;28;20232;-89
2022/01/05 09:56:46;;;;;;;5.65;2.38;;;5.00;99.90;;;;;;5029639;28;20270;-89
2022/01/05 09:59:15;;;;;;;6.85;2.15;;;5.40;99.90;;;;;;5026213;28;20296;-89
2022/01/05 10:01:44;;;;;;;7.45;1.70;;;5.20;99.90;;;;;;5020885;28;20209;-89
2022/01/05 10:04:13;;;;;;;3.33;1.50;;;5.40;99.90;;;;;;5019901;28;20236;-89
2022/01/05 10:06:41;;;;;;;7.88;2.15;;;5.30;99.90;;;;;;5021037;28;20233;-89
2022/01/05 10:09:09;;;;;;;7.18;2.30;;;5.10;99.90;;;;;;5021282;28;20623;-89
2022/01/05 10:11:36;;;;;;;5.50;2.50;;;4.70;99.90;;;;;;5019984;28;20203;-89
2022/01/05 10:14:03;;;;;;;6.68;2.10;;;4.50;99.90;;;;;;5020276;28;20196;-89
2022/01/05 10:16:30;;;;;;;6.00;2.75;;;5.10;99.90;;;;;;5019597;28;20230;-89
2022/01/05 10:19:00;;;;;;;4.57;1.80;;;4.60;99.90;;;;;;5019168;28;20660;-88
2022/01/05 10:21:35;;;;;;;5.80;1.75;;;5.10;99.90;;;;;;5019825;28;20215;-89
2022/01/05 10:24:03;;;;;;;6.45;2.25;;;5.10;99.90;;;;;;5025966;28;20270;-90
2022/01/05 10:26:32;;;;;;;8.13;1.88;;;4.90;99.90;;;;;;5021229;28;20295;-89
2022/01/05 10:29:01;;;;;;;5.85;2.00;;;4.80;99.90;;;;;;5019538;28;20274;-88
2022/01/05 10:31:31;;;;;;;4.35;1.65;;;4.60;99.90;;;;;;5019916;28;20256;-89
2022/01/05 10:34:13;;;;;;;5.10;1.85;;;4.90;99.90;;;;;;5036610;28;20177;-88
2022/01/05 10:36:45;;;;;;;8.15;2.40;;;4.70;99.90;;;;;;5038248;28;20188;-89
2022/01/05 10:39:12;;;;;;;4.65;1.65;;;4.80;99.90;;;;;;5030026;28;20221;-89
2022/01/05 10:41:40;;;;;;;6.15;2.13;;;4.90;99.90;;;;;;5031557;28;20235;-88
2022/01/05 10:44:25;;;;;;;5.97;2.00;;;4.60;99.90;;;;;;5037292;28;20200;-88
2022/01/05 10:46:55;;;;;;;8.07;1.65;;;5.20;99.90;;;;;;5030535;28;20220;-89
2022/01/05 10:49:28;;;;;;;8.32;2.42;;;4.90;99.90;;;;;;5022352;28;20235;-88
2022/01/05 10:51:57;;;;;;;5.15;1.67;;;4.70;99.90;;;;;;5022659;28;20208;-89
2022/01/05 10:54:25;;;;;;;6.57;2.00;;;5.30;99.90;;;;;;5022447;28;20220;-88
2022/01/05 10:56:53;;;;;;;5.20;1.90;;;5.00;99.90;;;;;;5023665;28;20261;-89
2022/01/05 10:59:34;;;;;;;5.88;1.80;;;5.20;99.90;;;;;;5028501;28;20219;-88
2022/01/05 11:02:20;;;;;;;3.95;1.45;;;5.50;99.90;;;;;;5032339;28;20621;-89
2022/01/05 11:04:49;;;;;;;8.85;2.35;;;5.10;99.90;;;;;;5037793;28;20275;-87
2022/01/05 11:07:21;;;;;;;5.13;1.88;;;5.40;99.90;;;;;;5034755;28;20233;-89
2022/01/05 11:09:56;;;;;;;10.57;2.55;;;5.70;99.90;;;;;;5034104;28;20216;-88
2022/01/05 11:12:32;;;;;;;7.78;2.22;;;5.30;99.90;;;;;;5034443;28;20208;-89
2022/01/05 11:15:27;;;;;;;8.30;2.20;;;5.10;99.90;;;;;;5034120;28;20193;-88
2022/01/05 11:18:14;;;;;;;7.78;3.10;;;5.60;99.90;;;;;;5030052;28;20233;-89
2022/01/05 11:20:46;;;;;;;8.43;2.05;;;5.70;99.90;;;;;;5031123;28;20230;-89
2022/01/05 11:23:15;;;;;;;5.88;2.00;;;5.60;99.90;;;;;;5023012;28;20225;-89
2022/01/05 11:25:44;;;;;;;8.20;2.28;;;5.50;99.90;;;;;;5024478;28;20321;-90
2022/01/05 11:28:21;;;;;;;10.68;3.35;;;5.50;99.90;;;;;;5025851;28;20233;-88
2022/01/05 11:30:50;;;;;;;6.63;1.75;;;5.50;99.90;;;;;;5024874;28;20215;-89
2022/01/05 11:33:18;;;;;;;9.65;2.65;;;6.10;99.90;;;;;;5025068;28;20268;-88
2022/01/05 11:35:48;;;;;;;7.82;2.30;;;5.50;99.90;;;;;;5020377;28;20272;-88
2022/01/05 11:38:16;;;;;;;7.50;2.28;;;6.00;99.90;;;;;;5019366;28;20261;-91
2022/01/05 11:40:47;;;;;;;7.95;2.40;;;5.50;99.90;;;;;;5019857;28;20229;-89
2022/01/05 11:43:16;;;;;;;6.57;1.90;;;5.50;99.90;;;;;;5021025;28;20213;-90
2022/01/05 11:45:47;;;;;;;14.13;3.50;;;6.10;99.90;;;;;;5020862;28;20202;-90
2022/01/05 11:48:22;;;;;;;7.97;2.00;;;6.00;99.90;;;;;;5020409;28;20237;-89
2022/01/05 11:51:04;;;;;;;4.13;1.48;;;5.80;99.90;;;;;;5020218;28;20214;-89
2022/01/05 11:53:40;;;;;;;7.03;2.20;;;6.20;99.90;;;;;;5020520;28;20235;-88
2022/01/05 11:56:18;;;;;;;4.07;1.50;;;5.90;99.90;;;;;;5021386;28;20209;-89
2022/01/05 11:58:57;;;;;;;3.75;1.55;;;6.10;99.90;;;;;;5020005;28;20252;-89
2022/01/05 12:01:34;;;;;;;9.68;1.73;;;5.60;99.90;;;;;;5021749;28;20301;-88
2022/01/05 12:04:09;;;;;;;11.88;3.38;;;5.80;99.90;;;;;;5024485;28;20274;-89
2022/01/05 12:09:51;;;;;;;8.77;2.65;;;5.80;99.90;;;;;;4698180;26;20244;-87
2022/01/05 12:12:33;;;;;;;5.15;2.15;;;5.90;99.90;;;;;;4998735;28;20207;-88
2022/01/05 12:15:03;;;;;;;12.23;2.25;;;5.60;99.90;;;;;;4998719;28;20273;-87
2022/01/05 12:17:32;;;;;;;8.25;2.35;;;5.90;99.90;;;;;;5005742;28;20658;-88
2022/01/05 12:20:09;;;;;;;7.45;2.25;;;6.00;99.90;;;;;;5001699;28;20215;-87
2022/01/05 12:22:38;;;;;;;6.70;1.95;;;6.10;99.90;;;;;;5007227;28;20186;-88
2022/01/05 12:25:09;;;;;;;8.40;1.77;;;6.10;99.90;;;;;;4981377;28;20219;-88
2022/01/05 12:27:38;;;;;;;7.25;2.40;;;5.90;99.90;;;;;;5000592;28;20715;-88
2022/01/05 12:30:35;;;;;;;6.45;2.63;;;6.20;99.90;;;;;;5000618;28;20230;-88
2022/01/05 12:33:04;;;;;;;6.10;2.08;;;6.30;99.90;;;;;;5002213;28;20199;-88
2022/01/05 12:35:44;;;;;;;9.25;1.90;;;6.40;99.90;;;;;;5013880;28;20214;-87
2022/01/05 12:38:13;;;;;;;4.57;2.30;;;6.30;99.20;;;;;;5017138;28;20218;-87
2022/01/05 12:40:42;;;;;;;6.75;1.75;;;6.00;99.90;;;;;;5012411;28;20210;-87
2022/01/05 12:43:35;;;;;;;4.82;1.30;;;6.00;99.90;;;;;;5015991;28;20209;-87
2022/01/05 12:46:11;;;;;;;6.65;1.58;;;5.70;99.70;;;;;;5015929;28;20269;-87
2022/01/05 12:48:59;;;;;;;8.60;2.10;;;5.80;99.40;;;;;;5016950;28;20244;-87
2022/01/05 12:51:44;;;;;;;8.10;1.80;;;5.90;99.90;;;;;;5006185;28;20237;-87
2022/01/05 12:54:18;;;;;;;10.15;2.95;;;5.70;99.10;;;;;;5001017;28;20559;-87
2022/01/05 12:56:47;;;;;;;6.50;1.80;;;5.60;99.50;;;;;;4998700;28;20305;-87
2022/01/05 12:59:18;;;;;;;10.98;2.35;;;5.80;99.40;;;;;;4998794;28;20238;-88
2022/01/05 13:01:45;;;;;;;4.43;1.70;;;5.70;99.70;;;;;;4998269;28;20213;-88
2022/01/05 13:04:14;;;;;;;5.93;1.80;;;5.80;99.50;;;;;;4999469;28;20206;-88
2022/01/05 13:06:42;;;;;;;6.50;2.42;;;5.30;99.80;;;;;;4998154;28;20218;-87
2022/01/05 13:09:13;;;;;;;9.50;2.13;;;5.30;99.90;;;;;;4997457;28;20298;-88
2022/01/05 13:11:42;;;;;;;16.35;3.10;;;5.80;99.90;;;;;;4998694;28;20249;-88
2022/01/05 13:14:20;;;;;;;7.40;2.28;;;5.50;99.80;;;;;;4997977;28;20269;-88